Latest Weather Observations for Lajamanu

IDD60801

Issued at 10:41 pm CST Monday 6 July 2020 (issued every 10 minutes, with the page automatically refreshed every 10 minutes)

About weather observations | Map of weather stations | Latest weather observations for NT | Other Formats
Station Details ID: 014829 Name: LAJAMANU AIRPORT Lat: -18.33 Lon: 130.64 Height: 315.6 m
Data from the previous 72 hours. | See also: Recent months at Lajamanu
Date/Time
CST
Temp
°C
App
Temp
°C
Dew
Point
°C
Rel
Hum
%
Delta-T
°C
Wind Press
QNH
hPa
Press
MSL
hPa
Rain since
9am
mm
Dir  Spd
km/h
Gust
km/h
Spd
kts
Gust
kts
06/10:30pm 14.8 10.2 -4.5 26 7.5 SE 11 15 6 8 1021.3 1020.5 0.0
06/10:00pm 15.5 10.5 -4.4 25 7.8 SE 13 19 7 10 1021.1 1020.3 0.0
06/09:30pm 15.9 10.9 -4.6 24 8.0 SE 13 17 7 9 1020.9 1020.1 0.0
06/09:00pm 15.3 10.9 -5.7 23 8.0 ESE 9 11 5 6 1020.9 1020.1 0.0
06/08:30pm 16.9 12.2 -4.9 22 8.6 SE 11 15 6 8 1020.7 1019.9 0.0
06/08:00pm 17.3 12.6 -5.2 21 8.9 ESE 11 15 6 8 1020.6 1019.8 0.0
06/07:30pm 18.0 13.7 -5.3 20 9.2 SE 9 13 5 7 1020.4 1019.6 0.0
06/07:00pm 18.9 14.4 -6.7 17 9.9 ESE 9 13 5 7 1019.9 1019.1 0.0
06/06:30pm 20.9 15.7 -6.7 15 10.9 ESE 13 17 7 9 1019.6 1018.8 0.0
06/06:00pm 22.3 15.9 -6.5 14 11.6 ESE 19 26 10 14 1019.3 1018.5 0.0
06/05:30pm 23.0 16.4 -6.9 13 12.0 ESE 20 28 11 15 1019.0 1018.2 0.0
06/05:00pm 23.5 16.6 -6.5 13 12.2 ESE 22 33 12 18 1018.9 1018.1 0.0
06/04:30pm 23.9 17.4 -6.2 13 12.4 ESE 20 32 11 17 1018.8 1018.0 0.0
06/04:00pm 23.9 17.0 -6.2 13 12.4 ESE 22 33 12 18 1018.9 1018.1 0.0
06/03:30pm 23.9 17.1 -5.2 14 12.2 ESE 22 30 12 16 1018.9 1018.1 0.0
06/03:00pm 23.3 17.1 -4.8 15 11.8 ESE 19 35 10 19 1019.5 1018.7 0.0
06/02:30pm 23.1 15.9 -4.9 15 11.7 ESE 24 33 13 18 1019.7 1018.9 0.0
06/02:00pm 22.0 15.3 -4.1 17 11.0 SE 22 33 12 18 1020.1 1019.3 0.0
06/01:30pm 21.9 14.8 -4.2 17 10.9 ESE 24 35 13 19 1020.5 1019.7 0.0
06/01:00pm 21.2 14.5 -4.0 18 10.6 E 22 35 12 19 1021.1 1020.3 0.0
06/12:30pm 20.3 13.3 -3.4 20 9.9 ESE 24 32 13 17 1021.8 1021.0 0.0
06/12:00pm 19.5 12.1 -3.4 21 9.5 ESE 26 35 14 19 1022.3 1021.6 0.0
06/11:30am 19.0 10.9 -3.2 22 9.2 ESE 30 41 16 22 1022.8 1022.0 0.0
06/11:00am 18.4 10.7 -3.1 23 8.9 ESE 28 39 15 21 1023.3 1022.5 0.0
06/10:30am 17.2 9.1 -3.5 24 8.4 ESE 30 41 16 22 1023.5 1022.7 0.0
06/10:00am 16.4 8.2 -3.7 25 8.1 ESE 30 46 16 25 1023.8 1023.0 0.0
06/09:59am 16.5 8.7 -3.6 25 8.1 ESE 28 46 15 25 1023.8 1023.0 0.0
06/09:30am 14.9 6.4 -3.4 28 7.3 ESE 32 44 17 24 1023.9 1023.1 0.0
06/09:00am 13.8 6.4 -3.9 29 6.9 ESE 26 39 14 21 1023.8 1023.0 0.0
06/08:30am 12.6 6.5 -4.1 31 6.4 SE 19 26 10 14 1023.5 1022.7 0.0
06/08:00am 11.3 5.5 -4.4 33 5.9 SE 17 24 9 13 1023.1 1022.3 0.0
06/07:30am 10.4 5.8 -4.4 35 5.5 ESE 11 15 6 8 1022.9 1022.1 0.0
06/07:00am 10.4 6.1 -4.8 34 5.6 ESE 9 15 5 8 1022.2 1021.5 0.0
06/06:30am 11.1 5.7 -4.1 34 5.7 ESE 15 20 8 11 1021.8 1021.0 0.0
06/06:00am 10.8 5.8 -4.4 34 5.6 ESE 13 17 7 9 1021.6 1020.8 0.0
06/05:30am 10.7 6.1 -4.5 34 5.6 SE 11 15 6 8 1021.4 1020.6 0.0
06/05:00am 11.0 6.0 -4.6 33 5.8 ESE 13 17 7 9 1021.1 1020.3 0.0
06/04:30am 11.0 6.4 -4.2 34 5.7 ESE 11 17 6 9 1021.0 1020.2 0.0
06/04:00am 11.1 6.5 -4.1 34 5.7 ESE 11 15 6 8 1021.0 1020.2 0.0
06/03:30am 10.9 6.3 -3.9 35 5.6 ESE 11 13 6 7 1020.9 1020.1 0.0
06/03:00am 10.4 6.2 -3.6 37 5.3 ESE 9 11 5 6 1021.1 1020.3 0.0
06/02:30am 11.2 7.4 -3.7 35 5.7 ESE 7 11 4 6 1021.1 1020.3 0.0
06/02:00am 11.5 7.4 -3.4 35 5.7 SE 9 11 5 6 1021.2 1020.4 0.0
06/01:30am 11.9 8.1 -3.4 34 5.9 ESE 7 11 4 6 1021.4 1020.6 0.0
06/01:00am 12.9 8.7 -3.8 31 6.5 ESE 9 11 5 6 1021.2 1020.4 0.0
06/12:30am 13.7 9.6 -3.1 31 6.6 ESE 9 11 5 6 1021.2 1020.4 0.0
06/12:00am 13.1 9.0 -3.2 32 6.4 ESE 9 13 5 7 1021.1 1020.3 0.0
 
Date/Time
CST
Temp
°C
App
Temp
°C
Dew
Point
°C
Rel
Hum
%
Delta-T
°C
Wind Press
QNH
hPa
Press
MSL
hPa
Rain since
9am
mm
Dir  Spd
km/h
Gust
km/h
Spd
kts
Gust
kts
05/11:30pm 14.1 9.7 -2.8 31 6.7 ESE 11 15 6 8 1021.1 1020.3 0.0
05/11:00pm 12.9 8.7 -3.8 31 6.5 ESE 9 11 5 6 1020.9 1020.1 0.0
05/10:30pm 14.7 11.0 -3.1 29 7.1 ESE 7 13 4 7 1021.0 1020.2 0.0
05/10:00pm 14.7 10.6 -3.1 29 7.1 ESE 9 11 5 6 1020.8 1020.0 0.0
05/09:30pm 14.8 11.0 -4.0 27 7.4 ESE 7 9 4 5 1020.6 1019.8 0.0
05/09:00pm 16.0 11.8 -3.5 26 7.8 ESE 9 11 5 6 1020.3 1019.5 0.0
05/08:30pm 16.3 12.1 -3.7 25 8.0 ESE 9 11 5 6 1020.1 1019.3 0.0
05/08:00pm 17.2 13.0 -4.1 23 8.6 ESE 9 11 5 6 1019.8 1019.0 0.0
05/07:30pm 18.6 14.0 -4.1 21 9.2 SE 11 13 6 7 1019.5 1018.7 0.0
05/07:00pm 20.0 15.4 -4.3 19 10.0 ESE 11 17 6 9 1019.3 1018.5 0.0
05/06:30pm 21.4 15.6 -4.6 17 10.8 ESE 17 22 9 12 1019.0 1018.2 0.0
05/06:00pm 22.6 15.8 -5.3 15 11.5 ESE 22 28 12 15 1018.7 1017.9 0.0
05/05:30pm 23.2 16.3 -5.7 14 11.9 ESE 22 30 12 16 1018.4 1017.6 0.0
05/05:00pm 23.7 16.5 -5.3 14 12.1 ESE 24 32 13 17 1018.3 1017.5 0.0
05/04:30pm 24.4 17.9 -5.8 13 12.6 ESE 20 32 11 17 1018.3 1017.5 0.0
05/04:00pm 24.3 18.0 -5.8 13 12.5 ESE 19 35 10 19 1018.6 1017.8 0.0
05/03:30pm 24.3 17.5 -4.9 14 12.4 E 22 44 12 24 1018.8 1018.0 0.0
05/03:00pm 24.0 17.2 -5.1 14 12.2 ESE 22 35 12 19 1019.0 1018.2 0.0
05/02:30pm 23.7 16.5 -5.3 14 12.1 ESE 24 41 13 22 1019.5 1018.7 0.0
05/02:00pm 23.6 16.5 -4.5 15 11.9 E 24 39 13 21 1019.9 1019.1 0.0
05/01:30pm 22.8 15.5 -2.7 18 11.1 ESE 26 37 14 20 1020.4 1019.6 0.0
05/01:00pm 22.2 14.9 -2.5 19 10.8 E 26 41 14 22 1021.1 1020.3 0.0
05/12:30pm 21.6 14.1 -1.6 21 10.2 ESE 28 46 15 25 1021.7 1020.9 0.0
05/12:24pm 21.3 13.7 -1.9 21 10.1 ESE 28 46 15 25 1021.8 1021.0 0.0
05/12:00pm 20.8 13.3 -1.7 22 9.8 E 28 44 15 24 1022.4 1021.7 0.0
05/11:30am 20.7 13.6 -1.1 23 9.6 ESE 26 41 14 22 1023.1 1022.3 0.0
05/11:00am 19.1 10.8 -1.4 25 8.9 ESE 32 46 17 25 1023.6 1022.8 0.0
05/10:30am 18.7 10.5 -1.2 26 8.6 E 32 46 17 25 1023.8 1023.0 0.0
05/10:16am 18.6 10.4 -0.7 27 8.4 E 32 50 17 27 1023.9 1023.1 0.0
05/10:00am 17.9 9.2 -0.4 29 8.0 E 35 48 19 26 1023.8 1023.0 0.0
05/09:46am 17.3 9.2 -0.4 30 7.7 ESE 32 52 17 28 1023.8 1023.0 0.0
05/09:30am 16.5 8.7 -0.7 31 7.4 ESE 30 39 16 21 1023.8 1023.0 0.0
05/09:00am 15.4 8.4 -0.8 33 6.8 ESE 26 39 14 21 1023.7 1022.9 0.0
05/08:30am 14.2 8.0 -0.6 36 6.2 ESE 22 30 12 16 1023.4 1022.6 0.0
05/08:00am 13.2 7.9 -0.8 38 5.8 ESE 17 20 9 11 1023.2 1022.4 0.0
05/07:30am 12.6 7.6 -1.0 39 5.6 ESE 15 20 8 11 1022.9 1022.1 0.0
05/07:00am 12.9 7.5 -1.4 37 5.8 SE 17 20 9 11 1022.6 1021.9 0.0
05/06:30am 13.3 7.5 -1.8 35 6.1 ESE 19 26 10 14 1022.2 1021.5 0.0
05/06:00am 13.7 7.8 -1.9 34 6.3 ESE 19 28 10 15 1021.8 1021.0 0.0
05/05:30am 13.3 8.2 -2.2 34 6.2 SE 15 20 8 11 1021.9 1021.1 0.0
05/05:00am 13.5 8.3 -2.8 32 6.5 SE 15 20 8 11 1021.9 1021.1 0.0
05/04:30am 14.2 8.6 -2.7 31 6.8 SE 17 22 9 12 1021.9 1021.1 0.0
05/04:00am 13.9 8.3 -2.9 31 6.7 SE 17 24 9 13 1021.8 1021.0 0.0
05/03:30am 14.2 8.2 -3.1 30 6.9 SE 19 26 10 14 1021.9 1021.1 0.0
05/03:00am 14.1 8.9 -2.8 31 6.7 SSE 15 22 8 12 1022.3 1021.6 0.0
05/02:30am 14.2 9.8 -2.7 31 6.8 SSE 11 15 6 8 1022.5 1021.8 0.0
05/02:00am 14.4 10.0 -2.5 31 6.8 SSE 11 15 6 8 1022.4 1021.7 0.0
05/01:30am 15.1 10.3 -2.3 30 7.1 SSE 13 20 7 11 1022.5 1021.8 0.0
05/01:00am 15.5 11.5 -2.4 29 7.3 S 9 13 5 7 1022.6 1021.9 0.0
05/12:30am 16.4 12.4 -2.6 27 7.8 SSE 9 13 5 7 1022.1 1021.4 0.0
05/12:00am 17.1 12.7 -2.5 26 8.1 SSE 11 15 6 8 1022.5 1021.8 0.0
 
Date/Time
CST
Temp
°C
App
Temp
°C
Dew
Point
°C
Rel
Hum
%
Delta-T
°C
Wind Press
QNH
hPa
Press
MSL
hPa
Rain since
9am
mm
Dir  Spd
km/h
Gust
km/h
Spd
kts
Gust
kts
04/11:30pm 17.8 12.9 -3.0 24 8.6 SE 13 19 7 10 1022.3 1021.6 0.0
04/11:00pm 17.9 12.7 -2.9 24 8.6 SE 15 22 8 12 1022.1 1021.4 0.0
04/10:30pm 18.3 13.1 -2.6 24 8.7 SE 15 20 8 11 1022.5 1021.8 0.0
04/10:00pm 18.7 13.2 -2.3 24 8.9 SSE 17 24 9 13 1022.4 1021.7 0.0
04/09:30pm 19.2 14.4 -2.4 23 9.1 SSE 13 19 7 10 1022.1 1021.4 0.0
04/09:00pm 19.8 14.2 -2.5 22 9.5 SE 17 24 9 13 1021.9 1021.1 0.0
04/08:30pm 20.1 14.1 -2.9 21 9.7 SE 19 24 10 13 1021.4 1020.6 0.0
04/08:00pm 20.5 15.2 -3.9 19 10.2 SE 15 20 8 11 1021.3 1020.5 0.0
04/07:30pm 21.0 15.6 -4.2 18 10.5 SE 15 20 8 11 1020.9 1020.1 0.0
04/07:00pm 21.4 16.0 -4.6 17 10.8 SE 15 22 8 12 1020.7 1019.9 0.0
04/06:30pm 21.9 15.6 -4.2 17 10.9 SE 20 30 11 16 1020.4 1019.6 0.0
04/06:00pm 22.2 15.7 -2.5 19 10.7 SE 22 32 12 17 1020.3 1019.5 0.0
04/05:30pm 22.7 16.2 -2.1 19 10.9 SE 22 30 12 16 1020.3 1019.5 0.0
04/05:00pm 23.0 16.6 -1.8 19 11.0 SE 22 30 12 16 1020.2 1019.4 0.0
04/04:30pm 23.3 16.8 -2.3 18 11.3 SE 22 33 12 18 1020.3 1019.5 0.0
04/04:00pm 23.8 17.7 -2.7 17 11.7 SE 20 32 11 17 1020.4 1019.6 0.0
04/03:30pm 24.1 17.2 -2.4 17 11.7 ESE 24 37 13 20 1020.5 1019.7 0.0
04/03:00pm 24.8 17.6 -1.9 17 12.0 ESE 26 39 14 21 1020.6 1019.8 0.0
04/02:30pm 24.2 17.1 -1.6 18 11.6 ESE 26 39 14 21 1021.0 1020.2 0.0
04/02:00pm 24.1 16.9 -1.7 18 11.6 ESE 26 39 14 21 1021.5 1020.7 0.0
04/01:30pm 23.6 17.1 -2.1 18 11.4 ESE 22 32 12 17 1022.1 1021.4 0.0
04/01:00pm 23.3 16.6 -0.9 20 11.0 ESE 24 41 13 22 1022.6 1021.9 0.0
04/12:30pm 22.7 15.6 -1.4 20 10.7 ESE 26 41 14 22 1023.3 1022.5 0.0
04/12:00pm 22.8 15.7 -1.3 20 10.8 ESE 26 37 14 20 1023.6 1022.8 0.0
04/11:30am 22.3 14.8 -1.1 21 10.4 E 28 39 15 21 1024.0 1023.2 0.0
04/11:00am 21.4 13.6 -0.6 23 9.9 E 30 41 16 22 1024.2 1023.4 0.0
04/10:30am 20.3 12.5 -0.9 24 9.3 ESE 30 39 16 21 1024.6 1023.8 0.0
04/10:00am 19.8 12.0 -0.8 25 9.1 ESE 30 41 16 22 1024.7 1023.9 0.0
04/09:30am 18.8 10.5 -0.6 27 8.5 ESE 33 44 18 24 1024.6 1023.8 0.0
04/09:00am 18.1 10.0 -0.2 29 8.0 ESE 32 41 17 22 1024.4 1023.6 0.0
04/08:30am 17.7 11.6 0.4 31 7.6 ESE 22 33 12 18 1024.1 1023.3 0.0
04/08:00am 17.0 11.9 0.6 33 7.3 SE 17 22 9 12 1023.8 1023.0 0.0
04/07:30am 16.7 12.0 0.8 34 7.0 SE 15 20 8 11 1023.5 1022.7 0.0
04/07:00am 17.3 12.2 0.9 33 7.3 SE 17 24 9 13 1023.3 1022.5 0.0
04/06:30am 17.7 12.6 0.8 32 7.5 SE 17 26 9 14 1023.0 1022.2 0.0
04/06:00am 18.2 12.6 1.3 32 7.6 ESE 20 26 11 14 1022.6 1021.9 0.0
04/05:30am 18.8 12.8 1.3 31 8.0 SE 22 33 12 18 1022.4 1021.7 0.0
04/05:00am 19.4 13.5 1.9 31 8.1 ESE 22 32 12 17 1021.9 1021.1 0.0
04/04:30am 19.7 13.9 2.1 31 8.2 ESE 22 30 12 16 1021.8 1021.0 0.0
04/04:00am 19.9 14.2 2.7 32 8.1 SE 22 32 12 17 1021.9 1021.1 0.0
04/03:30am 20.2 14.7 3.9 34 7.9 SE 22 32 12 17 1021.7 1020.9 0.0
04/03:00am 20.7 15.2 3.9 33 8.2 SE 22 30 12 16 1021.7 1020.9 0.0
04/02:30am 21.5 16.1 2.7 29 9.0 ESE 20 30 11 16 1021.7 1020.9 0.0
04/02:00am 22.3 15.1 2.9 28 9.4 ESE 30 41 16 22 1021.8 1021.0 0.0
04/01:30am 22.7 16.4 3.8 29 9.3 ESE 26 43 14 23 1021.7 1020.9 0.0
04/01:00am 23.1 17.3 4.6 30 9.3 ESE 24 37 13 20 1021.6 1020.8 0.0
04/12:30am 23.4 18.2 5.3 31 9.2 ESE 22 32 12 17 1021.5 1020.7 0.0
04/12:00am 23.6 18.8 5.5 31 9.2 ESE 20 28 11 15 1021.4 1020.6 0.0
 
Date/Time
CST
Temp
°C
App
Temp
°C
Dew
Point
°C
Rel
Hum
%
Delta-T
°C
Wind Press
QNH
hPa
Press
MSL
hPa
Rain since
9am
mm
Dir  Spd
km/h
Gust
km/h
Spd
kts
Gust
kts
03/11:30pm 23.7 18.9 5.6 31 9.3 ESE 20 24 11 13 1021.3 1020.5 0.0
03/11:00pm 24.2 19.1 6.0 31 9.4 ESE 22 28 12 15 1021.3 1020.5 0.0

Other formats

Comma delimited format used in spreadsheet applications
http://www.bom.gov.au/fwo/IDD60801/IDD60801.94231.axf

JavaScript Object Notation format (JSON) in row-major order
http://www.bom.gov.au/fwo/IDD60801/IDD60801.94231.json

Data quality

Most of these data are generated automatically and are frequently updated. Quality checks on data are not normally performed. It is possible for incorrect values to appear. Refer to information at About Latest Weather Observations and please check the disclaimer before using these data.